createdAt,value
2018-11-20T00:00:22.586Z,-0.90
2018-11-20T00:03:22.801Z,-0.90
2018-11-20T00:06:22.460Z,-0.90
2018-11-20T00:09:25.480Z,-0.90
2018-11-20T00:12:18.456Z,-0.90
2018-11-20T00:15:07.830Z,-0.90
2018-11-20T00:18:07.818Z,-0.90
2018-11-20T00:21:07.784Z,-0.90
2018-11-20T00:24:10.170Z,-0.90
2018-11-20T00:26:58.622Z,-0.90
2018-11-20T00:30:03.713Z,-0.90
2018-11-20T00:33:03.597Z,-0.90
2018-11-20T00:35:56.260Z,-0.90
2018-11-20T00:38:56.587Z,-0.80
2018-11-20T00:41:47.193Z,-0.90
2018-11-20T00:44:45.532Z,-0.90
2018-11-20T00:47:45.294Z,-0.90
2018-11-20T00:50:45.245Z,-0.90
2018-11-20T00:53:45.243Z,-0.90
2018-11-20T00:56:40.982Z,-0.90
2018-11-20T00:59:40.795Z,-0.90
2018-11-20T01:03:20.769Z,-0.90
2018-11-20T01:06:23.405Z,-0.90
2018-11-20T01:09:28.793Z,-0.80
2018-11-20T01:12:15.675Z,-0.90
2018-11-20T01:15:09.722Z,-0.80
2018-11-20T01:18:12.662Z,-0.80
2018-11-20T01:21:12.478Z,-0.80
2018-11-20T01:24:02.401Z,-0.80
2018-11-20T01:27:02.100Z,-0.80
2018-11-20T01:30:01.829Z,-0.80
2018-11-20T01:33:02.346Z,-0.80
2018-11-20T01:36:02.266Z,-0.80
2018-11-20T01:39:02.030Z,-0.80
2018-11-20T01:42:01.707Z,-0.80
2018-11-20T01:45:04.531Z,-0.80
2018-11-20T01:47:51.567Z,-0.80
2018-11-20T01:50:51.161Z,-0.70
2018-11-20T01:53:53.612Z,-0.70
2018-11-20T01:56:53.884Z,-0.70
2018-11-20T01:59:53.786Z,-0.70
2018-11-20T02:02:47.736Z,-0.70
2018-11-20T02:05:42.665Z,-0.70
2018-11-20T02:08:41.807Z,-0.70
2018-11-20T02:11:47.811Z,-0.70
2018-11-20T02:14:50.357Z,-0.70
2018-11-20T02:17:47.852Z,-0.70
2018-11-20T02:20:47.760Z,-0.70
2018-11-20T02:23:47.699Z,-0.70
2018-11-20T02:26:48.103Z,-0.70
2018-11-20T02:29:45.059Z,-0.60
2018-11-20T02:32:45.241Z,-0.60
2018-11-20T02:35:45.160Z,-0.60
2018-11-20T02:38:37.880Z,-0.60
2018-11-20T02:41:40.308Z,-0.60
2018-11-20T02:44:40.764Z,-0.60
2018-11-20T02:50:45.658Z,-0.60
2018-11-20T02:53:32.643Z,-0.60
2018-11-20T02:56:29.360Z,-0.60
2018-11-20T02:59:29.523Z,-0.50
2018-11-20T03:02:22.282Z,-0.60
2018-11-20T03:05:22.173Z,-0.60
2018-11-20T03:08:18.407Z,-0.50
2018-11-20T03:11:18.418Z,-0.50
2018-11-20T03:14:12.089Z,-0.50
2018-11-20T03:17:12.521Z,-0.50
2018-11-20T03:20:12.933Z,-0.50
2018-11-20T03:23:12.767Z,-0.50
2018-11-20T03:26:12.413Z,-0.50
2018-11-20T03:29:12.653Z,-0.50
2018-11-20T03:32:01.597Z,-0.50
2018-11-20T03:34:54.993Z,-0.60
2018-11-20T03:37:57.950Z,-0.50
2018-11-20T03:40:44.939Z,-0.50
2018-11-20T03:43:50.331Z,-0.50
2018-11-20T03:46:38.544Z,-0.50
2018-11-20T03:49:38.527Z,-0.50
2018-11-20T03:52:33.265Z,-0.50
2018-11-20T03:55:39.186Z,-0.50
2018-11-20T03:58:38.363Z,-0.50
2018-11-20T04:01:41.343Z,-0.50
2018-11-20T04:04:41.486Z,-0.50
2018-11-20T04:07:42.026Z,-0.50
2018-11-20T04:10:36.648Z,-0.50
2018-11-20T04:13:37.027Z,-0.50
2018-11-20T04:16:37.133Z,-0.50
2018-11-20T04:19:37.185Z,-0.50
2018-11-20T04:22:37.534Z,-0.50
2018-11-20T04:25:40.202Z,-0.50
2018-11-20T04:28:41.278Z,-0.50
2018-11-20T04:31:40.789Z,-0.40
2018-11-20T04:34:40.655Z,-0.40
2018-11-20T04:37:40.689Z,-0.40
2018-11-20T04:40:40.565Z,-0.40
2018-11-20T04:43:40.113Z,-0.40
2018-11-20T04:46:31.279Z,-0.40
2018-11-20T04:49:37.163Z,-0.40
2018-11-20T04:52:39.902Z,-0.40
2018-11-20T04:55:40.358Z,-0.40
2018-11-20T04:58:39.299Z,-0.30
2018-11-20T05:01:38.831Z,-0.30
2018-11-20T05:04:41.393Z,-0.30
2018-11-20T05:07:38.718Z,-0.30
2018-11-20T05:10:38.367Z,-0.30
2018-11-20T05:13:31.972Z,-0.30
2018-11-20T05:16:19.314Z,-0.30
2018-11-20T05:19:21.794Z,-0.30
2018-11-20T05:22:24.983Z,-0.30
2018-11-20T05:25:24.753Z,-0.30
2018-11-20T05:28:24.680Z,-0.30
2018-11-20T05:31:30.737Z,-0.30
2018-11-20T05:34:30.607Z,-0.30
2018-11-20T05:37:32.644Z,-0.20
2018-11-20T05:40:26.682Z,-0.30
2018-11-20T05:43:24.670Z,-0.20
2018-11-20T05:46:11.613Z,-0.20
2018-11-20T05:49:09.109Z,-0.20
2018-11-20T05:52:09.595Z,-0.30
2018-11-20T05:55:10.022Z,-0.30
2018-11-20T05:58:10.022Z,-0.20
2018-11-20T06:04:29.342Z,-0.20
2018-11-20T06:07:29.236Z,-0.20
2018-11-20T06:10:29.562Z,-0.20
2018-11-20T06:13:29.540Z,-0.20
2018-11-20T06:16:29.303Z,-0.20
2018-11-20T06:19:28.425Z,-0.10
2018-11-20T06:22:27.536Z,-0.10
2018-11-20T06:25:19.386Z,-0.10
2018-11-20T06:28:25.367Z,-0.10
2018-11-20T06:31:20.864Z,-0.10
2018-11-20T06:34:20.883Z,-0.10
2018-11-20T06:37:20.478Z,-0.10
2018-11-20T06:40:17.194Z,0.00
2018-11-20T06:43:17.257Z,0.00
2018-11-20T06:46:10.440Z,-0.10
2018-11-20T06:49:04.781Z,-0.10
2018-11-20T06:52:04.316Z,-0.10
2018-11-20T06:55:10.250Z,-0.10
2018-11-20T06:58:09.743Z,-0.10
2018-11-20T07:01:09.798Z,-0.10
2018-11-20T07:04:15.323Z,-0.10
2018-11-20T07:07:15.752Z,-0.10
2018-11-20T07:10:20.907Z,-0.10
2018-11-20T07:13:20.986Z,0.00
2018-11-20T07:16:14.668Z,0.00
2018-11-20T07:19:12.133Z,-0.10
2018-11-20T07:22:02.882Z,-0.10
2018-11-20T07:25:03.537Z,-0.10
2018-11-20T07:28:03.961Z,0.00
2018-11-20T07:31:04.599Z,0.00
2018-11-20T07:34:04.251Z,-0.10
2018-11-20T07:36:56.498Z,-0.10
2018-11-20T07:39:56.141Z,-0.10
2018-11-20T07:42:55.789Z,-0.10
2018-11-20T07:45:56.076Z,0.00
2018-11-20T07:48:55.874Z,-0.10
2018-11-20T07:51:56.359Z,0.00
2018-11-20T07:54:56.625Z,-0.10
2018-11-20T07:58:02.220Z,0.00
2018-11-20T08:01:02.513Z,0.00
2018-11-20T08:04:02.369Z,0.00
2018-11-20T08:07:01.927Z,0.00
2018-11-20T08:10:01.985Z,0.10
2018-11-20T08:13:07.784Z,0.00
2018-11-20T08:16:10.219Z,0.00
2018-11-20T08:19:05.525Z,0.00
2018-11-20T08:21:58.882Z,0.00
2018-11-20T08:24:58.441Z,0.00
2018-11-20T08:27:58.147Z,0.10
2018-11-20T08:30:57.836Z,0.10
2018-11-20T08:33:57.638Z,0.10
2018-11-20T08:36:57.197Z,0.10
2018-11-20T08:39:56.680Z,0.10
2018-11-20T08:42:56.495Z,0.10
2018-11-20T08:45:56.349Z,0.10
2018-11-20T08:48:52.636Z,0.20
2018-11-20T08:51:53.116Z,0.20
2018-11-20T08:54:52.988Z,0.20
2018-11-20T08:57:53.238Z,0.20
2018-11-20T09:00:58.419Z,0.20
2018-11-20T09:03:58.668Z,0.30
2018-11-20T09:06:59.134Z,0.30
2018-11-20T09:09:58.902Z,0.30
2018-11-20T09:12:58.638Z,0.30
2018-11-20T09:15:58.497Z,0.30
2018-11-20T09:19:01.278Z,0.30
2018-11-20T09:22:01.268Z,0.30
2018-11-20T09:25:01.285Z,0.30
2018-11-20T09:28:01.763Z,0.30
2018-11-20T09:31:02.115Z,0.30
2018-11-20T09:34:01.794Z,0.30
2018-11-20T09:40:11.770Z,0.30
2018-11-20T09:43:11.433Z,0.30
2018-11-20T09:46:11.239Z,0.30
2018-11-20T09:49:16.797Z,0.30
2018-11-20T09:52:16.863Z,0.20
2018-11-20T09:55:19.441Z,0.20
2018-11-20T09:58:11.362Z,0.20
2018-11-20T10:01:11.324Z,0.20
2018-11-20T10:04:10.943Z,0.20
2018-11-20T10:07:11.106Z,0.20
2018-11-20T10:10:00.064Z,0.20
2018-11-20T10:12:47.014Z,0.10
2018-11-20T10:15:46.839Z,0.10
2018-11-20T10:18:46.922Z,0.10
2018-11-20T10:21:46.766Z,0.10
2018-11-20T10:24:46.374Z,0.10
2018-11-20T10:27:46.338Z,0.10
2018-11-20T10:30:46.372Z,0.10
2018-11-20T10:33:42.756Z,0.20
2018-11-20T10:36:42.584Z,0.10
2018-11-20T10:39:42.342Z,0.10
2018-11-20T10:42:41.636Z,0.10
2018-11-20T10:45:41.687Z,0.10
2018-11-20T10:48:38.790Z,0.10
2018-11-20T10:51:38.646Z,0.10
2018-11-20T10:54:44.829Z,0.10
2018-11-20T10:57:37.416Z,0.10
2018-11-20T11:00:37.930Z,0.10
2018-11-20T11:03:18.420Z,0.00
2018-11-20T11:06:19.138Z,0.00
2018-11-20T11:09:19.533Z,0.00
2018-11-20T11:12:19.617Z,0.00
2018-11-20T11:15:24.900Z,0.00
2018-11-20T11:18:19.647Z,0.00
2018-11-20T11:21:19.610Z,0.10
2018-11-20T11:24:20.010Z,0.00
2018-11-20T11:27:17.118Z,0.00
2018-11-20T11:30:17.809Z,0.10
2018-11-20T11:33:21.338Z,0.10
2018-11-20T11:36:18.625Z,0.10
2018-11-20T11:39:24.167Z,0.10
2018-11-20T11:42:14.031Z,0.10
2018-11-20T11:45:13.892Z,0.10
2018-11-20T11:48:14.526Z,0.10
2018-11-20T11:51:14.990Z,0.20
2018-11-20T11:54:14.957Z,0.20
2018-11-20T11:57:14.643Z,0.20
2018-11-20T12:00:14.627Z,0.20
2018-11-20T12:03:14.074Z,0.20
2018-11-20T12:06:16.980Z,0.20
2018-11-20T12:09:16.979Z,0.20
2018-11-20T12:12:16.939Z,0.20
2018-11-20T12:15:16.711Z,0.20
2018-11-20T12:18:16.395Z,0.20
2018-11-20T12:21:16.060Z,0.20
2018-11-20T12:24:15.591Z,0.20
2018-11-20T12:27:20.323Z,0.20
2018-11-20T12:30:18.259Z,0.10
2018-11-20T12:33:18.210Z,0.10
2018-11-20T12:36:23.768Z,0.10
2018-11-20T12:39:23.323Z,0.10
2018-11-20T12:42:11.731Z,0.10
2018-11-20T12:45:17.348Z,0.10
2018-11-20T12:48:17.319Z,0.10
2018-11-20T12:51:17.265Z,0.10
2018-11-20T12:54:17.083Z,0.10
2018-11-20T12:57:16.791Z,0.10
2018-11-20T12:59:56.962Z,0.00
2018-11-20T13:02:56.672Z,0.10
2018-11-20T13:05:56.427Z,0.10
2018-11-20T13:09:00.896Z,0.10
2018-11-20T13:11:59.354Z,0.10
2018-11-20T13:14:59.469Z,0.10
2018-11-20T13:18:05.930Z,0.10
2018-11-20T13:20:56.121Z,0.10
2018-11-20T13:23:56.575Z,0.10
2018-11-20T13:26:56.119Z,0.10
2018-11-20T13:29:56.780Z,0.10
2018-11-20T13:32:57.286Z,0.10
2018-11-20T13:35:57.409Z,0.20
2018-11-20T13:38:57.659Z,0.10
2018-11-20T13:41:57.421Z,0.10
2018-11-20T13:44:57.390Z,0.10
2018-11-20T13:48:02.619Z,0.10
2018-11-20T13:50:51.840Z,0.10
2018-11-20T13:53:45.891Z,0.10
2018-11-20T13:56:45.886Z,0.10
2018-11-20T13:59:48.708Z,0.10
2018-11-20T14:02:56.960Z,0.10
2018-11-20T14:05:59.776Z,0.10
2018-11-20T14:09:01.746Z,0.10
2018-11-20T14:12:01.636Z,0.10
2018-11-20T14:14:56.381Z,0.10
2018-11-20T14:17:56.414Z,0.10
2018-11-20T14:20:58.750Z,0.10
2018-11-20T14:24:01.374Z,0.10
2018-11-20T14:27:01.032Z,0.10
2018-11-20T14:29:48.671Z,0.10
2018-11-20T14:32:48.913Z,0.10
2018-11-20T14:35:49.451Z,0.10
2018-11-20T14:38:56.200Z,0.10
2018-11-20T14:41:49.692Z,0.10
2018-11-20T14:44:55.573Z,0.10
2018-11-20T14:47:56.079Z,0.10
2018-11-20T14:50:56.220Z,0.10
2018-11-20T14:53:41.810Z,0.10
2018-11-20T14:56:41.974Z,0.10
2018-11-20T14:59:42.376Z,0.10
2018-11-20T15:02:42.804Z,0.10
2018-11-20T15:05:45.730Z,0.10
2018-11-20T15:08:46.296Z,0.10
2018-11-20T15:11:46.468Z,0.10
2018-11-20T15:14:46.478Z,0.10
2018-11-20T15:17:47.127Z,0.10
2018-11-20T15:20:47.184Z,0.00
2018-11-20T15:23:46.913Z,0.10
2018-11-20T15:26:38.641Z,0.00
2018-11-20T15:29:39.052Z,0.10
2018-11-20T15:32:28.620Z,0.10
2018-11-20T15:35:34.473Z,0.00
2018-11-20T15:38:29.377Z,0.00
2018-11-20T15:41:29.915Z,0.00
2018-11-20T15:44:30.372Z,0.00
2018-11-20T15:47:30.349Z,0.00
2018-11-20T15:50:31.038Z,0.00
2018-11-20T15:53:31.595Z,0.00
2018-11-20T15:56:31.364Z,0.00
2018-11-20T15:59:31.623Z,0.00
2018-11-20T16:02:31.473Z,0.00
2018-11-20T16:05:31.066Z,0.00
2018-11-20T16:08:31.169Z,0.00
2018-11-20T16:11:31.610Z,0.00
2018-11-20T16:14:26.614Z,-0.10
2018-11-20T16:17:27.201Z,0.00
2018-11-20T16:20:27.684Z,0.00
2018-11-20T16:23:28.106Z,-0.10
2018-11-20T16:26:28.203Z,-0.10
2018-11-20T16:32:28.337Z,0.00
2018-11-20T16:35:28.071Z,0.00
2018-11-20T16:38:28.037Z,0.00
2018-11-20T16:41:28.635Z,0.00
2018-11-20T16:44:28.540Z,0.00
2018-11-20T16:47:28.214Z,0.00
2018-11-20T16:50:29.499Z,0.00
2018-11-20T16:53:29.560Z,0.10
2018-11-20T16:56:29.280Z,0.10
2018-11-20T16:59:45.285Z,0.10
2018-11-20T17:02:45.264Z,0.10
2018-11-20T17:05:45.611Z,0.10
2018-11-20T17:08:39.529Z,0.10
2018-11-20T17:11:39.329Z,0.10
2018-11-20T17:14:39.635Z,0.10
2018-11-20T17:17:35.620Z,0.10
2018-11-20T17:20:35.331Z,0.10
2018-11-20T17:23:35.373Z,0.10
2018-11-20T17:26:36.671Z,0.10
2018-11-20T17:29:36.820Z,0.10
2018-11-20T17:32:37.083Z,0.10
2018-11-20T17:35:42.567Z,0.10
2018-11-20T17:38:42.452Z,0.10
2018-11-20T17:41:42.211Z,0.10
2018-11-20T17:44:41.893Z,0.10
2018-11-20T17:47:41.509Z,0.10
2018-11-20T17:50:41.262Z,0.10
2018-11-20T17:53:40.983Z,0.10
2018-11-20T17:56:40.786Z,0.10
2018-11-20T17:59:46.647Z,0.10
2018-11-20T18:02:47.495Z,0.10
2018-11-20T18:06:07.178Z,0.20
2018-11-20T18:12:32.125Z,0.20
2018-11-20T18:15:31.962Z,0.20
2018-11-20T18:18:31.566Z,0.20
2018-11-20T18:21:23.977Z,0.10
2018-11-20T18:24:15.033Z,0.10
2018-11-20T18:27:20.788Z,0.20
2018-11-20T18:30:09.944Z,0.10
2018-11-20T18:33:10.093Z,0.20
2018-11-20T18:36:10.375Z,0.10
2018-11-20T18:39:11.217Z,0.10
2018-11-20T18:42:12.030Z,0.10
2018-11-20T18:45:14.211Z,0.10
2018-11-20T18:48:14.298Z,0.10
2018-11-20T18:51:07.464Z,0.20
2018-11-20T18:54:07.987Z,0.20
2018-11-20T18:57:07.623Z,0.20
2018-11-20T19:00:07.541Z,0.10
2018-11-20T19:03:12.695Z,0.10
2018-11-20T19:06:12.743Z,0.10
2018-11-20T19:09:12.330Z,0.10
2018-11-20T19:12:12.160Z,0.00
2018-11-20T19:15:11.693Z,0.10
2018-11-20T19:18:11.439Z,0.00
2018-11-20T19:21:11.274Z,0.00
2018-11-20T19:24:10.969Z,0.00
2018-11-20T19:27:14.160Z,0.00
2018-11-20T19:30:14.566Z,0.00
2018-11-20T19:33:14.529Z,0.00
2018-11-20T19:36:16.957Z,0.00
2018-11-20T19:39:16.910Z,0.00
2018-11-20T19:42:17.472Z,0.10
2018-11-20T19:45:18.172Z,0.10
2018-11-20T19:48:18.730Z,0.10
2018-11-20T19:51:20.459Z,0.10
2018-11-20T19:54:27.600Z,0.10
2018-11-20T19:57:28.342Z,0.10
2018-11-20T20:00:29.568Z,0.10
2018-11-20T20:03:29.924Z,0.10
2018-11-20T20:06:29.621Z,0.10
2018-11-20T20:09:21.651Z,0.10
2018-11-20T20:12:23.686Z,0.10
2018-11-20T20:15:23.718Z,0.10
2018-11-20T20:18:24.000Z,0.10
2018-11-20T20:21:25.349Z,0.10
2018-11-20T20:24:22.620Z,0.10
2018-11-20T20:27:22.138Z,0.10
2018-11-20T20:30:23.306Z,0.10
2018-11-20T20:33:23.417Z,0.10
2018-11-20T20:36:43.115Z,0.10
2018-11-20T20:39:43.000Z,0.10
2018-11-20T20:42:45.411Z,0.10
2018-11-20T20:45:48.523Z,0.10
2018-11-20T20:48:48.221Z,0.10
2018-11-20T20:51:37.806Z,0.10
2018-11-20T20:54:38.042Z,0.10
2018-11-20T20:57:37.840Z,0.10
2018-11-20T21:00:38.665Z,0.10
2018-11-20T21:03:38.301Z,0.10
2018-11-20T21:06:37.943Z,0.20
2018-11-20T21:09:37.694Z,0.20
2018-11-20T21:12:37.361Z,0.10
2018-11-20T21:15:42.874Z,0.10
2018-11-20T21:18:42.527Z,0.10
2018-11-20T21:21:42.859Z,0.10
2018-11-20T21:24:48.837Z,0.20
2018-11-20T21:27:54.526Z,0.20
2018-11-20T21:30:55.040Z,0.10
2018-11-20T21:33:55.496Z,0.10
2018-11-20T21:36:51.595Z,0.10
2018-11-20T21:39:51.386Z,0.10
2018-11-20T21:42:51.697Z,0.10
2018-11-20T21:45:54.584Z,0.10
2018-11-20T21:48:50.939Z,0.10
2018-11-20T21:51:50.097Z,0.10
2018-11-20T21:54:49.803Z,0.10
2018-11-20T21:57:49.859Z,0.10
2018-11-20T22:00:49.407Z,0.10
2018-11-20T22:03:51.986Z,0.10
2018-11-20T22:06:52.068Z,0.10
2018-11-20T22:09:54.714Z,0.10
2018-11-20T22:12:54.584Z,0.10
2018-11-20T22:15:54.368Z,0.10
2018-11-20T22:18:54.106Z,0.10
2018-11-20T22:21:54.145Z,0.10
2018-11-20T22:24:54.234Z,0.10
2018-11-20T22:27:48.433Z,0.20
2018-11-20T22:30:48.905Z,0.20
2018-11-20T22:33:48.973Z,0.10
2018-11-20T22:36:48.579Z,0.10
2018-11-20T22:39:48.482Z,0.10
2018-11-20T22:42:53.640Z,0.10
2018-11-20T22:45:53.675Z,0.10
2018-11-20T22:48:59.913Z,0.10
2018-11-20T22:52:00.251Z,0.10
2018-11-20T22:55:00.519Z,0.20
2018-11-20T22:58:00.925Z,0.10
2018-11-20T23:01:01.001Z,0.10
2018-11-20T23:04:00.873Z,0.10
2018-11-20T23:06:53.253Z,0.10
2018-11-20T23:09:33.530Z,0.20
2018-11-20T23:12:14.005Z,0.30
2018-11-20T23:14:54.289Z,0.40
2018-11-20T23:17:34.726Z,0.40
2018-11-20T23:20:14.462Z,0.40
2018-11-20T23:22:55.067Z,0.40
2018-11-20T23:25:34.831Z,0.40
2018-11-20T23:28:15.225Z,0.40
2018-11-20T23:30:55.344Z,0.30
2018-11-20T23:33:35.914Z,0.30
2018-11-20T23:36:15.611Z,0.30
2018-11-20T23:38:56.240Z,0.30
2018-11-20T23:41:35.806Z,0.30
2018-11-20T23:44:15.532Z,0.30
2018-11-20T23:46:55.179Z,0.30
2018-11-20T23:49:35.116Z,0.20
2018-11-20T23:52:14.972Z,0.20
2018-11-20T23:54:54.610Z,0.20
2018-11-20T23:57:34.366Z,0.20
